createdAt,value
2017-12-11T00:00:22.401Z,1.76
2017-12-11T00:01:32.386Z,1.88
2017-12-11T00:02:42.755Z,1.85
2017-12-11T00:03:52.774Z,1.9
2017-12-11T00:05:03.096Z,1.91
2017-12-11T00:06:13.405Z,1.85
2017-12-11T00:07:23.298Z,1.88
2017-12-11T00:08:34.147Z,1.91
2017-12-11T00:09:44.019Z,1.76
2017-12-11T00:10:54.308Z,1.82
2017-12-11T00:12:04.665Z,1.7
2017-12-11T00:13:14.585Z,1.77
2017-12-11T00:14:24.509Z,1.72
2017-12-11T00:15:34.443Z,1.74
2017-12-11T00:16:44.439Z,1.73
2017-12-11T00:17:54.689Z,1.7
2017-12-11T00:19:04.713Z,1.7
2017-12-11T00:20:15.217Z,1.67
2017-12-11T00:21:26.492Z,1.67
2017-12-11T00:22:37.702Z,1.7
2017-12-11T00:23:47.756Z,1.66
2017-12-11T00:24:58.004Z,1.7
2017-12-11T00:26:08.264Z,1.67
2017-12-11T00:27:18.508Z,1.66
2017-12-11T00:28:28.777Z,1.69
2017-12-11T00:29:39.064Z,1.69
2017-12-11T00:30:49.298Z,1.7
2017-12-11T00:31:59.558Z,1.73
2017-12-11T00:33:10.126Z,1.67
2017-12-11T00:34:20.390Z,1.69
2017-12-11T00:35:30.650Z,1.69
2017-12-11T00:36:40.909Z,1.67
2017-12-11T00:37:51.163Z,1.69
2017-12-11T00:39:02.367Z,1.69
2017-12-11T00:40:12.620Z,1.69
2017-12-11T00:41:22.896Z,1.72
2017-12-11T00:42:33.326Z,1.77
2017-12-11T00:43:43.581Z,1.79
2017-12-11T00:44:53.825Z,1.73
2017-12-11T00:46:05.037Z,1.7
2017-12-11T00:47:15.366Z,1.74
2017-12-11T00:48:25.672Z,1.84
2017-12-11T00:49:35.687Z,1.79
2017-12-11T00:50:45.923Z,1.77
2017-12-11T00:51:56.167Z,1.88
2017-12-11T00:53:06.437Z,1.92
2017-12-11T00:54:16.722Z,1.9
2017-12-11T00:55:27.075Z,2.01
2017-12-11T00:56:36.692Z,1.98
2017-12-11T00:57:47.195Z,1.94
2017-12-11T00:58:57.451Z,1.98
2017-12-11T01:00:07.433Z,1.95
2017-12-11T01:01:17.440Z,2.05
2017-12-11T01:02:27.701Z,2.03
2017-12-11T01:03:37.984Z,2.01
2017-12-11T01:04:48.265Z,2
2017-12-11T01:05:58.600Z,2.01
2017-12-11T01:07:08.872Z,2.03
2017-12-11T01:08:18.851Z,1.94
2017-12-11T01:09:29.109Z,2
2017-12-11T01:10:39.429Z,1.95
2017-12-11T01:11:49.743Z,1.95
2017-12-11T01:13:00.007Z,1.95
2017-12-11T01:14:10.251Z,1.94
2017-12-11T01:15:20.100Z,1.91
2017-12-11T01:16:30.347Z,1.97
2017-12-11T01:17:40.644Z,1.8
2017-12-11T01:18:50.691Z,1.84
2017-12-11T01:20:00.946Z,1.87
2017-12-11T01:21:11.188Z,1.9
2017-12-11T01:22:21.430Z,1.88
2017-12-11T01:23:31.512Z,1.8
2017-12-11T01:24:41.891Z,1.82
2017-12-11T01:25:52.139Z,1.87
2017-12-11T01:27:02.492Z,1.73
2017-12-11T01:28:12.509Z,1.79
2017-12-11T01:29:22.754Z,1.74
2017-12-11T01:30:33.011Z,1.7
2017-12-11T01:31:42.998Z,1.67
2017-12-11T01:32:53.276Z,1.55
2017-12-11T01:34:03.145Z,1.55
2017-12-11T01:35:13.402Z,1.53
2017-12-11T01:36:23.684Z,1.51
2017-12-11T01:37:33.935Z,1.53
2017-12-11T01:38:45.142Z,1.54
2017-12-11T01:39:55.652Z,1.51
2017-12-11T01:41:05.628Z,1.51
2017-12-11T01:42:15.916Z,1.54
2017-12-11T01:43:25.893Z,1.64
2017-12-11T01:44:36.144Z,1.57
2017-12-11T01:45:46.400Z,1.58
2017-12-11T01:46:56.643Z,1.73
2017-12-11T01:48:06.879Z,1.53
2017-12-11T01:49:17.226Z,1.69
2017-12-11T01:50:27.586Z,1.69
2017-12-11T01:51:37.554Z,1.69
2017-12-11T01:52:47.534Z,1.74
2017-12-11T01:53:57.783Z,1.69
2017-12-11T01:55:07.785Z,1.67
2017-12-11T01:56:18.028Z,1.64
2017-12-11T01:57:28.354Z,1.77
2017-12-11T01:58:38.597Z,1.7
2017-12-11T01:59:48.641Z,1.77
2017-12-11T02:00:58.994Z,1.8
2017-12-11T02:02:09.358Z,1.77
2017-12-11T02:03:19.631Z,1.74
2017-12-11T02:04:29.727Z,1.76
2017-12-11T02:05:39.991Z,1.73
2017-12-11T02:06:50.280Z,1.74
2017-12-11T02:08:00.525Z,1.67
2017-12-11T02:09:10.773Z,1.79
2017-12-11T02:10:21.091Z,1.8
2017-12-11T02:11:31.358Z,1.74
2017-12-11T02:12:41.767Z,1.82
2017-12-11T02:13:52.113Z,1.76
2017-12-11T02:15:01.823Z,1.8
2017-12-11T02:16:13.040Z,1.84
2017-12-11T02:17:23.294Z,1.84
2017-12-11T02:18:33.401Z,1.8
2017-12-11T02:19:43.644Z,1.8
2017-12-11T02:20:53.892Z,1.85
2017-12-11T02:22:04.153Z,1.9
2017-12-11T02:23:13.871Z,1.88
2017-12-11T02:24:24.129Z,1.85
2017-12-11T02:25:34.456Z,1.87
2017-12-11T02:26:44.482Z,1.88
2017-12-11T02:27:54.474Z,1.87
2017-12-11T02:29:04.183Z,1.91
2017-12-11T02:30:14.408Z,1.85
2017-12-11T02:31:24.722Z,1.88
2017-12-11T02:32:35.101Z,1.8
2017-12-11T02:33:45.381Z,1.88
2017-12-11T02:34:55.475Z,1.84
2017-12-11T02:36:05.527Z,1.82
2017-12-11T02:37:15.824Z,1.79
2017-12-11T02:38:26.201Z,1.77
2017-12-11T02:39:36.181Z,1.88
2017-12-11T02:40:46.433Z,1.77
2017-12-11T02:41:56.498Z,1.77
2017-12-11T02:43:06.486Z,1.76
2017-12-11T02:44:16.199Z,1.92
2017-12-11T02:45:26.243Z,1.77
2017-12-11T02:46:36.550Z,1.84
2017-12-11T02:47:46.825Z,1.9
2017-12-11T02:48:57.119Z,1.87
2017-12-11T02:50:07.227Z,1.92
2017-12-11T02:51:17.235Z,1.92
2017-12-11T02:52:27.475Z,1.92
2017-12-11T02:53:37.571Z,1.82
2017-12-11T02:54:47.446Z,1.88
2017-12-11T02:55:57.500Z,1.84
2017-12-11T02:57:07.845Z,1.9
2017-12-11T02:58:17.932Z,1.88
2017-12-11T02:59:27.984Z,1.92
2017-12-11T03:00:37.967Z,1.85
2017-12-11T03:01:48.264Z,1.85
2017-12-11T03:02:59.477Z,1.87
2017-12-11T03:04:09.731Z,1.85
2017-12-11T03:05:20.059Z,1.9
2017-12-11T03:06:30.343Z,1.9
2017-12-11T03:07:40.628Z,1.92
2017-12-11T03:08:50.873Z,1.88
2017-12-11T03:10:01.362Z,1.8
2017-12-11T03:11:11.504Z,1.82
2017-12-11T03:12:21.750Z,1.88
2017-12-11T03:13:31.852Z,1.87
2017-12-11T03:14:41.823Z,1.97
2017-12-11T03:15:52.057Z,2.01
2017-12-11T03:17:02.309Z,2
2017-12-11T03:18:12.546Z,1.92
2017-12-11T03:19:22.789Z,2
2017-12-11T03:20:33.022Z,1.97
2017-12-11T03:21:42.689Z,1.94
2017-12-11T03:22:52.927Z,1.91
2017-12-11T03:24:03.255Z,1.94
2017-12-11T03:25:13.657Z,1.97
2017-12-11T03:26:23.901Z,1.95
2017-12-11T03:27:33.880Z,1.88
2017-12-11T03:28:44.226Z,1.95
2017-12-11T03:29:54.507Z,1.97
2017-12-11T03:31:04.599Z,1.95
2017-12-11T03:32:15.037Z,1.97
2017-12-11T03:33:25.278Z,1.94
2017-12-11T03:34:35.526Z,1.82
2017-12-11T03:35:45.499Z,1.85
2017-12-11T03:36:55.795Z,1.9
2017-12-11T03:38:06.096Z,1.82
2017-12-11T03:39:16.455Z,1.84
2017-12-11T03:40:26.766Z,1.82
2017-12-11T03:41:37.048Z,1.85
2017-12-11T03:42:46.792Z,1.82
2017-12-11T03:43:57.051Z,1.95
2017-12-11T03:45:07.334Z,1.94
2017-12-11T03:46:17.648Z,1.97
2017-12-11T03:47:27.937Z,1.92
2017-12-11T03:48:38.172Z,1.94
2017-12-11T03:49:48.169Z,1.95
2017-12-11T03:50:58.546Z,1.97
2017-12-11T03:52:08.849Z,1.95
2017-12-11T03:53:19.094Z,1.97
2017-12-11T03:54:29.255Z,1.9
2017-12-11T03:55:39.388Z,1.79
2017-12-11T03:56:49.619Z,1.94
2017-12-11T03:57:59.962Z,1.85
2017-12-11T03:59:10.232Z,1.85
2017-12-11T04:00:20.509Z,1.82
2017-12-11T04:01:30.792Z,1.9
2017-12-11T04:02:41.039Z,1.82
2017-12-11T04:03:51.297Z,1.82
2017-12-11T04:05:01.697Z,1.82
2017-12-11T04:06:11.735Z,1.84
2017-12-11T04:07:22.107Z,1.84
2017-12-11T04:08:32.377Z,1.74
2017-12-11T04:09:42.256Z,1.85
2017-12-11T04:10:52.162Z,1.85
2017-12-11T04:12:02.509Z,1.84
2017-12-11T04:13:12.182Z,1.85
2017-12-11T04:14:22.429Z,1.84
2017-12-11T04:15:32.412Z,1.77
2017-12-11T04:16:42.685Z,1.84
2017-12-11T04:17:52.733Z,1.82
2017-12-11T04:19:02.998Z,1.84
2017-12-11T04:20:12.871Z,1.82
2017-12-11T04:21:23.117Z,1.84
2017-12-11T04:22:33.322Z,1.8
2017-12-11T04:23:43.618Z,1.74
2017-12-11T04:24:53.983Z,1.85
2017-12-11T04:26:04.254Z,1.73
2017-12-11T04:27:14.225Z,1.76
2017-12-11T04:28:24.272Z,1.84
2017-12-11T04:29:34.261Z,1.8
2017-12-11T04:30:44.530Z,1.77
2017-12-11T04:31:56.800Z,1.8
2017-12-11T04:33:08.033Z,1.69
2017-12-11T04:34:18.309Z,1.77
2017-12-11T04:35:28.404Z,1.76
2017-12-11T04:36:38.681Z,1.72
2017-12-11T04:37:48.920Z,1.7
2017-12-11T04:38:59.163Z,1.72
2017-12-11T04:40:09.459Z,1.74
2017-12-11T04:41:19.437Z,1.72
2017-12-11T04:42:29.728Z,1.67
2017-12-11T04:43:40.046Z,1.69
2017-12-11T04:44:50.407Z,1.66
2017-12-11T04:46:00.736Z,1.72
2017-12-11T04:47:10.726Z,1.54
2017-12-11T04:48:21.004Z,1.72
2017-12-11T04:49:31.248Z,1.72
2017-12-11T04:50:41.391Z,1.73
2017-12-11T04:51:51.649Z,1.7
2017-12-11T04:53:01.920Z,1.62
2017-12-11T04:54:11.895Z,1.69
2017-12-11T04:55:22.170Z,1.54
2017-12-11T04:56:32.435Z,1.62
2017-12-11T04:57:42.682Z,1.54
2017-12-11T04:58:52.714Z,1.67
2017-12-11T05:00:02.991Z,1.57
2017-12-11T05:01:13.277Z,1.55
2017-12-11T05:02:23.591Z,1.64
2017-12-11T05:03:33.872Z,1.55
2017-12-11T05:04:44.146Z,1.55
2017-12-11T05:05:54.383Z,1.54
2017-12-11T05:07:05.604Z,1.57
2017-12-11T05:08:15.854Z,1.55
2017-12-11T05:09:26.089Z,1.57
2017-12-11T05:10:36.348Z,1.62
2017-12-11T05:11:46.585Z,1.55
2017-12-11T05:12:56.839Z,1.58
2017-12-11T05:14:07.180Z,1.57
2017-12-11T05:15:17.511Z,1.53
2017-12-11T05:16:27.654Z,1.67
2017-12-11T05:17:37.263Z,1.48
2017-12-11T05:18:47.307Z,1.6
2017-12-11T05:19:57.281Z,1.55
2017-12-11T05:21:07.567Z,1.58
2017-12-11T05:22:18.828Z,1.58
2017-12-11T05:23:28.811Z,1.55
2017-12-11T05:24:39.108Z,1.51
2017-12-11T05:25:49.382Z,1.55
2017-12-11T05:26:59.383Z,1.58
2017-12-11T05:28:09.620Z,1.66
2017-12-11T05:29:18.965Z,1.53
2017-12-11T05:30:28.596Z,1.57
2017-12-11T05:31:38.693Z,1.53
2017-12-11T05:32:48.970Z,1.5
2017-12-11T05:33:59.268Z,1.57
2017-12-11T05:35:09.522Z,1.5
2017-12-11T05:36:19.805Z,1.53
2017-12-11T05:37:29.418Z,1.55
2017-12-11T05:38:39.390Z,1.55
2017-12-11T05:39:50.628Z,1.51
2017-12-11T05:41:00.857Z,1.64
2017-12-11T05:42:10.843Z,1.6
2017-12-11T05:43:21.082Z,1.6
2017-12-11T05:44:31.319Z,1.57
2017-12-11T05:45:41.587Z,1.58
2017-12-11T05:46:51.550Z,1.53
2017-12-11T05:48:01.804Z,1.53
2017-12-11T05:49:12.108Z,1.48
2017-12-11T05:50:22.110Z,1.53
2017-12-11T05:51:32.389Z,1.6
2017-12-11T05:52:42.731Z,1.53
2017-12-11T05:53:52.983Z,1.57
2017-12-11T05:55:02.890Z,1.54
2017-12-11T05:56:13.202Z,1.5
2017-12-11T05:57:23.205Z,1.53
2017-12-11T05:58:33.585Z,1.42
2017-12-11T05:59:43.939Z,1.38
2017-12-11T06:00:53.290Z,1.43
2017-12-11T06:02:03.548Z,1.5
2017-12-11T06:03:13.812Z,1.46
2017-12-11T06:04:24.052Z,1.46
2017-12-11T06:05:34.304Z,1.43
2017-12-11T06:06:44.221Z,1.39
2017-12-11T06:07:54.529Z,1.4
2017-12-11T06:09:04.846Z,1.32
2017-12-11T06:10:15.079Z,1.4
2017-12-11T06:11:25.334Z,1.47
2017-12-11T06:12:35.608Z,1.46
2017-12-11T06:13:45.619Z,1.51
2017-12-11T06:14:55.933Z,1.42
2017-12-11T06:16:06.203Z,1.47
2017-12-11T06:17:16.292Z,1.43
2017-12-11T06:18:26.007Z,1.57
2017-12-11T06:19:36.296Z,1.51
2017-12-11T06:20:46.565Z,1.62
2017-12-11T06:21:56.826Z,1.5
2017-12-11T06:23:06.593Z,1.57
2017-12-11T06:24:16.831Z,1.58
2017-12-11T06:25:27.070Z,1.5
2017-12-11T06:26:37.311Z,1.47
2017-12-11T06:27:47.575Z,1.47
2017-12-11T06:28:57.970Z,1.43
2017-12-11T06:30:07.962Z,1.39
2017-12-11T06:31:18.192Z,1.4
2017-12-11T06:32:27.908Z,1.47
2017-12-11T06:33:38.158Z,1.4
2017-12-11T06:34:48.179Z,1.43
2017-12-11T06:35:58.423Z,1.38
2017-12-11T06:37:08.467Z,1.46
2017-12-11T06:38:18.797Z,1.5
2017-12-11T06:39:28.807Z,1.46
2017-12-11T06:40:38.536Z,1.42
2017-12-11T06:41:48.780Z,1.46
2017-12-11T06:42:59.025Z,1.4
2017-12-11T06:44:09.013Z,1.42
2017-12-11T06:45:19.339Z,1.5
2017-12-11T06:46:29.434Z,1.39
2017-12-11T06:47:39.730Z,1.5
2017-12-11T06:48:49.856Z,1.46
2017-12-11T06:50:00.145Z,1.4
2017-12-11T06:51:10.398Z,1.39
2017-12-11T06:52:20.642Z,1.47
2017-12-11T06:53:31.009Z,1.46
2017-12-11T06:54:41.276Z,1.55
2017-12-11T06:55:51.673Z,1.51
2017-12-11T06:57:01.690Z,1.55
2017-12-11T06:58:12.053Z,1.47
2017-12-11T06:59:22.071Z,1.4
2017-12-11T07:00:32.346Z,1.47
2017-12-11T07:01:42.642Z,1.58
2017-12-11T07:02:53.076Z,1.47
2017-12-11T07:04:03.011Z,1.54
2017-12-11T07:05:13.306Z,1.42
2017-12-11T07:06:23.588Z,1.5
2017-12-11T07:07:33.895Z,1.43
2017-12-11T07:08:44.142Z,1.43
2017-12-11T07:09:54.127Z,1.4
2017-12-11T07:11:04.199Z,1.38
2017-12-11T07:12:14.201Z,1.39
2017-12-11T07:13:23.992Z,1.43
2017-12-11T07:14:33.970Z,1.5
2017-12-11T07:15:43.853Z,1.39
2017-12-11T07:16:54.208Z,1.47
2017-12-11T07:18:04.440Z,1.43
2017-12-11T07:19:14.699Z,1.38
2017-12-11T07:20:24.967Z,1.47
2017-12-11T07:21:35.229Z,1.43
2017-12-11T07:22:45.512Z,1.47
2017-12-11T07:23:55.811Z,1.46
2017-12-11T07:25:05.783Z,1.38
2017-12-11T07:26:16.061Z,1.39
2017-12-11T07:27:26.335Z,1.33
2017-12-11T07:28:36.357Z,1.36
2017-12-11T07:29:46.640Z,1.39
2017-12-11T07:30:56.660Z,1.5
2017-12-11T07:32:06.666Z,1.46
2017-12-11T07:33:16.119Z,1.4
2017-12-11T07:34:26.540Z,1.51
2017-12-11T07:35:36.554Z,1.39
2017-12-11T07:36:46.906Z,1.5
2017-12-11T07:37:56.692Z,1.47
2017-12-11T07:39:06.980Z,1.54
2017-12-11T07:40:17.339Z,1.47
2017-12-11T07:41:27.631Z,1.4
2017-12-11T07:42:37.878Z,1.38
2017-12-11T07:43:48.231Z,1.32
2017-12-11T07:44:58.560Z,1.29
2017-12-11T07:46:08.833Z,1.35
2017-12-11T07:47:19.080Z,1.32
2017-12-11T07:48:29.422Z,1.29
2017-12-11T07:49:39.692Z,1.2
2017-12-11T07:50:50.005Z,1.25
2017-12-11T07:51:59.924Z,1.22
2017-12-11T07:53:10.174Z,1.32
2017-12-11T07:54:20.084Z,1.33
2017-12-11T07:55:30.348Z,1.3
2017-12-11T07:56:40.805Z,1.33
2017-12-11T07:57:50.787Z,1.38
2017-12-11T07:59:01.067Z,1.38
2017-12-11T08:00:11.093Z,1.35
2017-12-11T08:01:21.071Z,1.4
2017-12-11T08:02:31.197Z,1.33
2017-12-11T08:03:41.561Z,1.35
2017-12-11T08:04:51.896Z,1.32
2017-12-11T08:06:01.781Z,1.3
2017-12-11T08:07:12.067Z,1.33
2017-12-11T08:08:22.508Z,1.36
2017-12-11T08:09:32.799Z,1.33
2017-12-11T08:10:43.056Z,1.29
2017-12-11T08:11:53.296Z,1.33
2017-12-11T08:13:03.434Z,1.32
2017-12-11T08:14:13.697Z,1.42
2017-12-11T08:15:23.945Z,1.42
2017-12-11T08:16:34.257Z,1.47
2017-12-11T08:17:44.747Z,1.46
2017-12-11T08:18:55.067Z,1.46
2017-12-11T08:20:05.363Z,1.43
2017-12-11T08:21:15.601Z,1.5
2017-12-11T08:22:25.582Z,1.43
2017-12-11T08:23:35.883Z,1.55
2017-12-11T08:24:46.142Z,1.51
2017-12-11T08:25:56.390Z,1.53
2017-12-11T08:27:06.645Z,1.5
2017-12-11T08:28:16.913Z,1.55
2017-12-11T08:29:27.154Z,1.51
2017-12-11T08:30:37.141Z,1.48
2017-12-11T08:31:47.399Z,1.46
2017-12-11T08:32:57.680Z,1.4
2017-12-11T08:34:07.673Z,1.5
2017-12-11T08:35:17.712Z,1.46
2017-12-11T08:36:27.980Z,1.46
2017-12-11T08:37:37.892Z,1.55
2017-12-11T08:38:47.607Z,1.55
2017-12-11T08:39:57.708Z,1.51
2017-12-11T08:41:07.982Z,1.55
2017-12-11T08:42:18.350Z,1.62
2017-12-11T08:43:28.622Z,1.6
2017-12-11T08:44:38.909Z,1.64
2017-12-11T08:45:48.544Z,1.57
2017-12-11T08:46:58.920Z,1.51
2017-12-11T08:48:08.905Z,1.57
2017-12-11T08:49:18.808Z,1.51
2017-12-11T08:50:28.810Z,1.57
2017-12-11T08:51:39.199Z,1.55
2017-12-11T08:52:49.461Z,1.6
2017-12-11T08:53:59.762Z,1.54
2017-12-11T08:55:10.117Z,1.57
2017-12-11T08:56:19.990Z,1.72
2017-12-11T08:57:30.522Z,1.72
2017-12-11T08:58:40.616Z,1.7
2017-12-11T08:59:50.627Z,1.64
2017-12-11T09:01:01.844Z,1.79
2017-12-11T09:02:11.838Z,1.76
2017-12-11T09:03:22.101Z,1.72
2017-12-11T09:04:32.236Z,1.77
2017-12-11T09:05:42.491Z,1.74
2017-12-11T09:06:52.491Z,1.79
2017-12-11T09:08:02.814Z,1.76
2017-12-11T09:09:13.181Z,1.74
2017-12-11T09:10:22.930Z,1.79
2017-12-11T09:11:33.239Z,1.77
2017-12-11T09:12:43.506Z,1.72
2017-12-11T09:13:53.753Z,1.74
2017-12-11T09:15:04.149Z,1.7
2017-12-11T09:16:14.030Z,1.74
2017-12-11T09:17:24.290Z,1.74
2017-12-11T09:18:34.577Z,1.7
2017-12-11T09:19:44.823Z,1.67
2017-12-11T09:20:54.817Z,1.66
2017-12-11T09:22:04.811Z,1.67
2017-12-11T09:23:15.079Z,1.67
2017-12-11T09:24:24.948Z,1.67
2017-12-11T09:25:34.926Z,1.76
2017-12-11T09:26:45.168Z,1.72
2017-12-11T09:27:55.086Z,1.76
2017-12-11T09:29:05.334Z,1.74
2017-12-11T09:30:15.217Z,1.72
2017-12-11T09:31:25.485Z,1.64
2017-12-11T09:32:35.517Z,1.72
2017-12-11T09:33:45.615Z,1.55
2017-12-11T09:34:55.981Z,1.53
2017-12-11T09:36:06.240Z,1.72
2017-12-11T09:37:15.963Z,1.73
2017-12-11T09:38:26.316Z,1.69
2017-12-11T09:39:36.240Z,1.74
2017-12-11T09:40:46.723Z,1.73
2017-12-11T09:41:56.973Z,1.74
2017-12-11T09:43:07.240Z,1.72
2017-12-11T09:44:16.955Z,1.73
2017-12-11T09:45:27.239Z,1.7
2017-12-11T09:46:37.497Z,1.73
2017-12-11T09:47:47.788Z,1.85
2017-12-11T09:48:58.012Z,1.82
2017-12-11T09:50:08.289Z,1.87
2017-12-11T09:51:18.690Z,1.8
2017-12-11T09:52:28.965Z,1.9
2017-12-11T09:53:39.018Z,1.85
2017-12-11T09:54:49.303Z,1.91
2017-12-11T09:55:59.585Z,1.91
2017-12-11T09:57:09.343Z,1.85
2017-12-11T09:58:19.705Z,1.98
2017-12-11T09:59:29.971Z,1.94
2017-12-11T10:00:40.232Z,1.94
2017-12-11T10:01:50.239Z,1.88
2017-12-11T10:03:00.210Z,1.87
2017-12-11T10:04:10.593Z,1.87
2017-12-11T10:05:20.588Z,1.9
2017-12-11T10:06:30.577Z,1.8
2017-12-11T10:07:40.841Z,1.77
2017-12-11T10:08:50.905Z,1.84
2017-12-11T10:10:01.179Z,1.85
2017-12-11T10:11:11.435Z,1.94
2017-12-11T10:12:21.697Z,1.9
2017-12-11T10:13:32.032Z,1.77
2017-12-11T10:14:42.300Z,1.8
2017-12-11T10:15:52.364Z,1.84
2017-12-11T10:17:02.396Z,1.87
2017-12-11T10:18:12.668Z,1.84
2017-12-11T10:19:22.945Z,2
2017-12-11T10:20:33.205Z,1.98
2017-12-11T10:21:43.459Z,1.95
2017-12-11T10:22:53.458Z,1.95
2017-12-11T10:24:03.763Z,1.88
2017-12-11T10:25:14.198Z,1.92
2017-12-11T10:26:24.178Z,1.91
2017-12-11T10:27:34.481Z,1.92
2017-12-11T10:28:44.522Z,1.82
2017-12-11T10:29:54.830Z,1.72
2017-12-11T10:31:05.147Z,1.77
2017-12-11T10:32:15.402Z,1.76
2017-12-11T10:33:25.674Z,1.76
2017-12-11T10:34:35.671Z,1.7
2017-12-11T10:35:45.932Z,1.73
2017-12-11T10:36:56.308Z,1.76
2017-12-11T10:38:06.320Z,1.73
2017-12-11T10:39:16.583Z,1.7
2017-12-11T10:40:26.839Z,1.7
2017-12-11T10:41:37.149Z,1.72
2017-12-11T10:42:47.442Z,1.74
2017-12-11T10:43:57.689Z,1.69
2017-12-11T10:45:07.948Z,1.76
2017-12-11T10:46:18.038Z,1.72
2017-12-11T10:47:28.111Z,1.69
2017-12-11T10:48:38.653Z,1.55
2017-12-11T10:49:48.982Z,1.51
2017-12-11T10:50:58.942Z,1.58
2017-12-11T10:52:09.303Z,1.6
2017-12-11T10:53:19.387Z,1.6
2017-12-11T10:54:29.421Z,1.62
2017-12-11T10:55:39.299Z,1.62
2017-12-11T10:56:49.624Z,1.54
2017-12-11T10:57:59.353Z,1.58
2017-12-11T10:59:09.351Z,1.53
2017-12-11T11:00:19.607Z,1.57
2017-12-11T11:01:29.866Z,1.53
2017-12-11T11:02:40.276Z,1.51
2017-12-11T11:03:50.534Z,1.57
2017-12-11T11:05:00.548Z,1.6
2017-12-11T11:06:10.840Z,1.54
2017-12-11T11:07:21.087Z,1.6
2017-12-11T11:08:31.486Z,1.48
2017-12-11T11:09:41.733Z,1.51
2017-12-11T11:10:51.997Z,1.53
2017-12-11T11:12:02.249Z,1.5
2017-12-11T11:13:12.501Z,1.57
2017-12-11T11:14:22.859Z,1.51
2017-12-11T11:15:33.138Z,1.5
2017-12-11T11:16:43.163Z,1.64
2017-12-11T11:17:53.189Z,1.53
2017-12-11T11:19:03.158Z,1.51
2017-12-11T11:20:13.048Z,1.66
2017-12-11T11:21:22.994Z,1.58
2017-12-11T11:22:33.293Z,1.54
2017-12-11T11:23:43.549Z,1.54
2017-12-11T11:24:53.837Z,1.5
2017-12-11T11:26:03.886Z,1.51
2017-12-11T11:27:14.144Z,1.53
2017-12-11T11:28:24.411Z,1.53
2017-12-11T11:29:34.718Z,1.58
2017-12-11T11:30:44.430Z,1.57
2017-12-11T11:31:54.805Z,1.55
2017-12-11T11:33:05.072Z,1.58
2017-12-11T11:34:15.548Z,1.5
2017-12-11T11:35:25.826Z,1.54
2017-12-11T11:36:35.843Z,1.58
2017-12-11T11:37:45.741Z,1.54
2017-12-11T11:38:55.724Z,1.58
2017-12-11T11:40:05.724Z,1.6
2017-12-11T11:41:16.088Z,1.48
2017-12-11T11:42:26.460Z,1.55
2017-12-11T11:43:36.716Z,1.51
2017-12-11T11:44:46.335Z,1.67
2017-12-11T11:45:56.327Z,1.53
2017-12-11T11:47:06.606Z,1.54
2017-12-11T11:48:16.968Z,1.53
2017-12-11T11:49:27.230Z,1.6
2017-12-11T11:50:37.533Z,1.6
2017-12-11T11:51:47.554Z,1.57
2017-12-11T11:52:57.811Z,1.54
2017-12-11T11:54:08.079Z,1.55
2017-12-11T11:55:18.329Z,1.57
2017-12-11T11:56:28.333Z,1.51
2017-12-11T11:57:38.640Z,1.51
2017-12-11T11:58:48.680Z,1.51
2017-12-11T11:59:58.616Z,1.51
2017-12-11T12:01:08.877Z,1.58
2017-12-11T12:02:18.861Z,1.5
2017-12-11T12:03:29.110Z,1.48
2017-12-11T12:04:39.679Z,1.62
2017-12-11T12:05:49.783Z,1.55
2017-12-11T12:07:00.042Z,1.57
2017-12-11T12:08:10.297Z,1.57
2017-12-11T12:09:20.626Z,1.62
2017-12-11T12:10:30.355Z,1.55
2017-12-11T12:11:40.605Z,1.67
2017-12-11T12:12:50.888Z,1.58
2017-12-11T12:14:00.938Z,1.64
2017-12-11T12:15:11.955Z,1.57
2017-12-11T12:16:21.854Z,1.6
2017-12-11T12:17:31.921Z,1.55
2017-12-11T12:18:42.245Z,1.54
2017-12-11T12:19:52.542Z,1.57
2017-12-11T12:21:02.786Z,1.55
2017-12-11T12:22:13.040Z,1.55
2017-12-11T12:23:23.292Z,1.51
2017-12-11T12:24:33.544Z,1.5
2017-12-11T12:25:43.521Z,1.5
2017-12-11T12:26:54.063Z,1.6
2017-12-11T12:28:04.075Z,1.57
2017-12-11T12:29:14.437Z,1.54
2017-12-11T12:30:24.693Z,1.48
2017-12-11T12:31:34.429Z,1.51
2017-12-11T12:32:44.510Z,1.51
2017-12-11T12:33:54.774Z,1.51
2017-12-11T12:35:04.723Z,1.53
2017-12-11T12:36:15.291Z,1.53
2017-12-11T12:37:25.277Z,1.54
2017-12-11T12:38:35.609Z,1.5
2017-12-11T12:39:45.871Z,1.43
2017-12-11T12:40:55.902Z,1.55
2017-12-11T12:42:06.168Z,1.48
2017-12-11T12:43:16.167Z,1.48
2017-12-11T12:44:26.160Z,1.47
2017-12-11T12:45:36.214Z,1.5
2017-12-11T12:46:46.542Z,1.51
2017-12-11T12:47:56.820Z,1.48
2017-12-11T12:49:06.881Z,1.4
2017-12-11T12:50:17.216Z,1.48
2017-12-11T12:51:27.573Z,1.53
2017-12-11T12:52:37.813Z,1.42
2017-12-11T12:53:47.748Z,1.43
2017-12-11T12:54:58.115Z,1.43
2017-12-11T12:56:08.122Z,1.43
2017-12-11T12:57:18.376Z,1.4
2017-12-11T12:58:28.398Z,1.46
2017-12-11T12:59:38.395Z,1.33
2017-12-11T13:00:48.687Z,1.32
2017-12-11T13:01:59.036Z,1.32
2017-12-11T13:03:09.366Z,1.28
2017-12-11T13:04:19.367Z,1.32
2017-12-11T13:05:29.655Z,1.25
2017-12-11T13:06:39.677Z,1.24
2017-12-11T13:07:49.936Z,1.3
2017-12-11T13:09:00.241Z,1.35
2017-12-11T13:10:10.529Z,1.36
2017-12-11T13:11:20.819Z,1.33
2017-12-11T13:12:30.418Z,1.33
2017-12-11T13:13:40.763Z,1.35
2017-12-11T13:14:51.034Z,1.35
2017-12-11T13:16:01.057Z,1.22
2017-12-11T13:17:11.040Z,1.22
2017-12-11T13:18:21.046Z,1.3
2017-12-11T13:19:31.349Z,1.21
2017-12-11T13:20:41.611Z,1.22
2017-12-11T13:21:51.878Z,1.24
2017-12-11T13:23:02.195Z,1.21
2017-12-11T13:24:12.454Z,1.21
2017-12-11T13:25:22.708Z,1.22
2017-12-11T13:26:32.626Z,1.24
2017-12-11T13:27:42.466Z,1.28
2017-12-11T13:28:52.731Z,1.24
2017-12-11T13:30:03.040Z,1.22
2017-12-11T13:31:12.504Z,1.22
2017-12-11T13:32:22.838Z,1.06
2017-12-11T13:33:33.094Z,1.11
2017-12-11T13:34:43.357Z,1.14
2017-12-11T13:35:53.616Z,1.12
2017-12-11T13:37:03.613Z,1.11
2017-12-11T13:38:13.506Z,1.1
2017-12-11T13:39:23.781Z,1.12
2017-12-11T13:40:34.033Z,1.02
2017-12-11T13:41:44.124Z,1.06
2017-12-11T13:42:54.407Z,1.06
2017-12-11T13:44:04.697Z,1.03
2017-12-11T13:45:14.704Z,1.02
2017-12-11T13:46:24.444Z,1.03
2017-12-11T13:47:34.485Z,0.99
2017-12-11T13:48:44.182Z,1.03
2017-12-11T13:49:54.172Z,1.03
2017-12-11T13:51:04.180Z,1.02
2017-12-11T13:52:14.524Z,1
2017-12-11T13:53:24.799Z,1.04
2017-12-11T13:54:35.109Z,1.08
2017-12-11T13:55:45.111Z,1.1
2017-12-11T13:56:55.130Z,1.11
2017-12-11T13:58:05.399Z,0.97
2017-12-11T13:59:15.328Z,0.99
2017-12-11T14:00:25.657Z,0.97
2017-12-11T14:01:36.025Z,1
2017-12-11T14:02:46.279Z,0.93
2017-12-11T14:03:56.566Z,0.92
2017-12-11T14:05:06.461Z,1.04
2017-12-11T14:06:16.819Z,1
2017-12-11T14:07:27.074Z,0.96
2017-12-11T14:08:37.368Z,0.88
2017-12-11T14:09:47.615Z,0.96
2017-12-11T14:10:57.371Z,1.03
2017-12-11T14:12:07.613Z,1.02
2017-12-11T14:13:17.628Z,1.06
2017-12-11T14:14:27.910Z,1.03
2017-12-11T14:15:38.165Z,1.02
2017-12-11T14:16:48.430Z,1
2017-12-11T14:17:58.165Z,1.03
2017-12-11T14:19:08.467Z,1.03
2017-12-11T14:20:18.730Z,0.96
2017-12-11T14:21:29.041Z,0.97
2017-12-11T14:22:39.033Z,1
2017-12-11T14:23:49.126Z,0.94
2017-12-11T14:24:59.161Z,0.86
2017-12-11T14:26:08.845Z,1.04
2017-12-11T14:27:19.159Z,1.02
2017-12-11T14:28:29.463Z,1
2017-12-11T14:29:39.771Z,1.02
2017-12-11T14:30:49.760Z,1.02
2017-12-11T14:31:59.754Z,0.99
2017-12-11T14:33:09.766Z,1.04
2017-12-11T14:34:20.032Z,1.02
2017-12-11T14:35:30.396Z,1.04
2017-12-11T14:36:40.733Z,1.1
2017-12-11T14:37:51.023Z,1.04
2017-12-11T14:39:01.139Z,1.03
2017-12-11T14:40:11.030Z,1
2017-12-11T14:41:21.298Z,0.97
2017-12-11T14:42:31.603Z,0.99
2017-12-11T14:43:41.882Z,1.06
2017-12-11T14:44:52.244Z,1.02
2017-12-11T14:46:02.589Z,1.12
2017-12-11T14:47:12.331Z,0.99
2017-12-11T14:48:22.046Z,1.17
2017-12-11T14:49:32.330Z,1.11
2017-12-11T14:50:42.375Z,1.11
2017-12-11T14:51:52.382Z,1.11
2017-12-11T14:53:02.670Z,1.08
2017-12-11T14:54:12.674Z,1.06
2017-12-11T14:55:22.678Z,1.06
2017-12-11T14:56:32.686Z,1.06
2017-12-11T14:57:42.962Z,1.04
2017-12-11T14:58:53.278Z,1.04
2017-12-11T15:00:03.071Z,1.06
2017-12-11T15:01:13.386Z,1
2017-12-11T15:02:23.659Z,1.08
2017-12-11T15:03:33.927Z,0.99
2017-12-11T15:04:44.196Z,1
2017-12-11T15:05:54.466Z,1.1
2017-12-11T15:07:04.508Z,1.14
2017-12-11T15:08:14.546Z,1.15
2017-12-11T15:09:24.892Z,1.12
2017-12-11T15:10:34.969Z,1.08
2017-12-11T15:11:45.246Z,1
2017-12-11T15:12:55.675Z,1.04
2017-12-11T15:14:05.993Z,1.14
2017-12-11T15:15:16.272Z,1.11
2017-12-11T15:16:26.582Z,1.15
2017-12-11T15:17:36.910Z,1.14
2017-12-11T15:18:47.170Z,1.17
2017-12-11T15:19:57.071Z,1.11
2017-12-11T15:21:07.326Z,1.03
2017-12-11T15:22:17.333Z,1.04
2017-12-11T15:23:27.601Z,1.06
2017-12-11T15:24:37.709Z,1.03
2017-12-11T15:25:48.149Z,1.03
2017-12-11T15:26:58.411Z,1.04
2017-12-11T15:28:08.668Z,0.99
2017-12-11T15:29:18.775Z,0.9
2017-12-11T15:30:28.127Z,0.85
2017-12-11T15:31:38.444Z,0.86
2017-12-11T15:32:48.767Z,0.88
2017-12-11T15:33:58.895Z,0.99
2017-12-11T15:35:09.030Z,0.94
2017-12-11T15:36:19.040Z,0.97
2017-12-11T15:37:29.116Z,0.9
2017-12-11T15:38:39.499Z,0.88
2017-12-11T15:39:49.756Z,0.94